Lincang, China
Current Conditions -  °F | °C
As of 12:00 AM on Saturday 01 Nov 2014 (Local Time) from ZPPP Reporting Station
Broken Clouds Broken Clouds  
Wind Chill: 57°   Ceiling: 3300
Heat Index: 57°   Visibility: 5mi
Dew Point: 57°   Wind: 9mph
Humidity: 100%   Direction: 220°SW
Pressure: 30.21"   Gusts: NA
Location:  23.95°N, 100.22°E
Report Text: ZPPP 311600Z 22004MPS 8000 SCT016 BKN033 14/14 Q1023 NOSIG
Loading
Personal Weather Stations






























Interactive Weather Map
Tropical Storm Tracking
New forecast layout! Learn more

10-Day Weather Forecast

Advertisements
Track Severe Weather on mobile